Fort Hood, Texas
Current Conditions -  °F | °C
As of 4:56 PM on Thursday 27 Nov 2014 (Local Time) from KHLR Reporting Station
Clear Clear  
Wind Chill: 61°   Ceiling: Unl
Heat Index: 61°   Visibility: 10mi
Dew Point: 27°   Wind: 7mph
Humidity: 27%   Direction: 120°ESE
Pressure: 30.4"   Gusts: NA
Location:  31.2151°N, 97.7405°W
Report Text: KHLR 272256Z AUTO 12006KT 10SM CLR 16/M03 A3040 RMK AO2 SLP327 T01611028 $
Loading
Personal Weather Stations






























Interactive Weather Map New forecast layout! Learn more

10-Day Weather Forecast

Advertisements
Track Severe Weather on mobile